Time;durP1;ratioP1;P1;durP2;ratioP2;P2;SDS_P1;SDS_P2;PMS_P1;PMS_P2;Temp;Humidity;BMP_temperature;BMP_pressure;BME280_temperature;BME280_humidity;BME280_pressure;Samples;Min_cycle;Max_cycle;Signal;HPM_P1;HPM_P2
2023/08/25 00:01:22;;;;;;;0.20;0.20;;;;;;;22.24;60.38;99641.19;5372481;26;20052;-96
2023/08/25 00:03:48;;;;;;;0.25;0.25;;;;;;;22.18;60.39;99646.97;5352541;26;20699;-95
2023/08/25 00:06:14;;;;;;;0.82;0.82;;;;;;;22.35;60.40;99637.66;5352829;26;20123;-95
2023/08/25 00:08:40;;;;;;;1.00;0.95;;;;;;;22.59;60.41;99625.00;5334204;26;20074;-96
2023/08/25 00:11:05;;;;;;;0.20;0.20;;;;;;;22.30;60.39;99619.47;5334407;26;20097;-96
2023/08/25 00:13:32;;;;;;;0.20;0.20;;;;;;;22.21;60.39;99635.28;5348744;26;20063;-96
2023/08/25 00:15:58;;;;;;;0.65;0.65;;;;;;;22.23;60.39;99620.09;5349061;26;20064;-96
2023/08/25 00:18:23;;;;;;;0.45;0.45;;;;;;;22.18;60.38;99609.03;5348709;26;20093;-96
2023/08/25 00:20:49;;;;;;;0.20;0.20;;;;;;;22.16;60.39;99611.81;5348313;26;20389;-96
2023/08/25 00:23:15;;;;;;;0.00;0.00;;;;;;;22.11;60.39;99602.56;5330661;26;20056;-95
2023/08/25 00:25:45;;;;;;;0.22;0.22;;;;;;;22.20;60.39;99613.22;5330723;26;20060;-96
2023/08/25 01:26:55;;;;;;;0.47;0.32;;;;;;;21.79;60.36;99586.59;5286986;26;19945;-95
2023/08/25 01:29:20;;;;;;;0.35;0.35;;;;;;;21.70;60.35;99583.72;5263085;26;20045;-94
2023/08/25 01:31:46;;;;;;;0.40;0.40;;;;;;;21.75;60.37;99580.69;5243734;27;20077;-94
2023/08/25 01:34:19;;;;;;;0.60;0.43;;;;;;;21.74;60.36;99579.84;5243478;27;20151;-94
2023/08/25 01:36:55;;;;;;;0.05;0.05;;;;;;;21.62;60.35;99593.25;5246459;27;20061;-94
2023/08/25 01:39:21;;;;;;;3.30;1.02;;;;;;;21.78;60.36;99601.66;5244168;27;20581;-94
2023/08/25 01:41:48;;;;;;;0.22;0.22;;;;;;;21.87;60.36;99602.72;5244260;27;20057;-95
2023/08/25 01:44:15;;;;;;;0.88;0.82;;;;;;;21.58;60.36;99595.31;5244271;27;20099;-94
2023/08/25 01:46:42;;;;;;;1.48;1.10;;;;;;;21.54;60.34;99599.16;5244949;27;20077;-96
2023/08/25 01:49:08;;;;;;;0.60;0.60;;;;;;;21.50;60.35;99595.06;5262535;27;20778;-95
2023/08/25 01:51:35;;;;;;;0.80;0.80;;;;;;;21.50;60.35;99586.25;5244185;27;20084;-95
2023/08/25 01:54:57;;;;;;;1.08;0.45;;;;;;;21.47;60.34;99583.88;5262566;27;20128;-94
2023/08/25 01:57:15;;;;;;;0.25;0.25;;;;;;;21.64;60.36;99575.41;5270296;27;20056;-94
2023/08/25 01:59:43;;;;;;;0.25;0.25;;;;;;;21.53;60.35;99570.12;5244272;27;20079;-94
2023/08/25 02:02:09;;;;;;;0.25;0.25;;;;;;;21.44;60.34;99563.78;5244472;27;20053;-94
2023/08/25 02:04:35;;;;;;;0.43;0.43;;;;;;;21.38;60.34;99567.75;5244331;27;20044;-95
2023/08/25 02:07:00;;;;;;;0.35;0.35;;;;;;;21.37;60.34;99558.13;5243908;27;20071;-95
2023/08/25 02:09:26;;;;;;;0.65;0.65;;;;;;;21.41;60.33;99558.72;5244173;27;20425;-94
2023/08/25 02:11:51;;;;;;;0.20;0.20;;;;;;;21.37;60.34;99554.62;5242953;27;20057;-93
2023/08/25 02:14:17;;;;;;;0.10;0.10;;;;;;;21.31;60.34;99547.19;5260481;27;20157;-94
2023/08/25 02:16:42;;;;;;;1.40;0.62;;;;;;;21.37;60.34;99538.75;5242540;27;20069;-95
2023/08/25 02:19:08;;;;;;;1.08;0.85;;;;;;;21.36;60.34;99537.06;5242125;26;20097;-95
2023/08/25 02:21:34;;;;;;;2.75;0.75;;;;;;;21.32;60.34;99536.47;5243413;26;20036;-94
2023/08/25 02:26:49;;;;;;;0.00;0.00;;;;;;;21.29;60.34;99530.56;5315115;26;20044;-95
2023/08/25 02:29:15;;;;;;;0.20;0.20;;;;;;;21.42;60.35;99520.69;5285965;27;20062;-96
2023/08/25 02:31:41;;;;;;;0.22;0.22;;;;;;;21.51;60.35;99532.34;5276543;27;20021;-96
2023/08/25 02:34:09;;;;;;;0.65;0.65;;;;;;;21.37;60.34;99533.47;5275325;27;20053;-95
2023/08/25 02:36:36;;;;;;;0.95;0.73;;;;;;;21.31;60.34;99541.91;5254148;27;20069;-95
2023/08/25 02:39:03;;;;;;;1.10;0.80;;;;;;;21.42;60.35;99533.94;5272197;26;20062;-95
2023/08/25 02:41:30;;;;;;;3.80;1.12;;;;;;;21.56;60.34;99543.44;5272512;26;20035;-96
2023/08/25 02:44:07;;;;;;;0.10;0.10;;;;;;;21.45;60.34;99537.16;5274012;27;20020;-95
2023/08/25 02:46:33;;;;;;;0.20;0.20;;;;;;;21.41;60.35;99527.78;5264704;27;20125;-95
2023/08/25 02:48:58;;;;;;;0.32;0.32;;;;;;;21.51;60.35;99519.94;5244568;27;20100;-95
2023/08/25 02:51:24;;;;;;;0.65;0.40;;;;;;;21.43;60.34;99523.22;5244807;27;20056;-95
2023/08/25 02:53:50;;;;;;;0.65;0.65;;;;;;;21.62;60.35;99540.28;5261873;27;20089;-94
2023/08/25 02:56:25;;;;;;;0.37;0.37;;;;;;;21.42;60.35;99558.59;5244381;27;20089;-95
2023/08/25 02:58:51;;;;;;;0.37;0.32;;;;;;;21.59;60.34;99570.50;5241092;27;116254;-96
2023/08/25 03:01:16;;;;;;;1.05;0.98;;;;;;;21.85;60.36;99584.28;5280137;27;20067;-94
2023/08/25 03:03:43;;;;;;;0.15;0.15;;;;;;;21.83;60.36;99582.72;5245215;27;20080;-95
2023/08/25 03:06:09;;;;;;;0.82;0.82;;;;;;;21.48;60.35;99586.38;5246115;27;20432;-95
2023/08/25 03:08:35;;;;;;;0.17;0.17;;;;;;;21.37;60.34;99599.66;5264035;27;20064;-95
2023/08/25 03:11:03;;;;;;;1.52;0.20;;;;;;;21.38;60.34;99591.59;5246907;27;20530;-95
2023/08/25 03:13:30;;;;;;;0.40;0.40;;;;;;;21.35;60.34;99591.84;5245501;27;20112;-95
2023/08/25 03:15:55;;;;;;;0.25;0.25;;;;;;;21.44;60.34;99604.34;5263997;27;20065;-96
2023/08/25 03:18:26;;;;;;;0.47;0.45;;;;;;;21.54;60.34;99600.97;5247281;27;20079;-96
2023/08/25 03:24:32;;;;;;;4.03;1.23;;;;;;;21.63;60.35;99614.31;5326813;26;20081;-96
2023/08/25 03:32:08;;;;;;;0.52;0.52;;;;;;;21.99;60.37;99617.59;5300253;26;20068;-95
2023/08/25 03:34:33;;;;;;;0.47;0.47;;;;;;;22.01;60.37;99631.59;5285165;27;20112;-95
2023/08/25 03:36:59;;;;;;;1.70;0.93;;;;;;;22.02;60.38;99636.78;5285908;26;20160;-96
2023/08/25 03:39:26;;;;;;;1.25;0.77;;;;;;;21.94;60.36;99638.34;5285498;27;20071;-95
2023/08/25 03:41:51;;;;;;;0.35;0.30;;;;;;;21.92;60.37;99638.47;5304563;26;20070;-96
2023/08/25 03:44:20;;;;;;;1.55;1.45;;;;;;;22.05;60.37;99644.50;5305210;27;20063;-95
2023/08/25 03:46:46;;;;;;;0.17;0.17;;;;;;;22.02;60.38;99647.38;5267470;27;20064;-95
2023/08/25 03:49:14;;;;;;;0.00;0.00;;;;;;;22.08;60.37;99677.88;5287080;26;20074;-95
2023/08/25 03:51:40;;;;;;;0.43;0.43;;;;;;;22.25;60.38;99748.09;5288852;27;20053;-96
2023/08/25 03:54:06;;;;;;;3.70;1.27;;;;;;;21.94;60.36;99694.00;5285905;26;20410;-96
2023/08/25 03:56:32;;;;;;;1.15;0.68;;;;;;;22.20;60.38;99698.06;5288987;27;20066;-96
2023/08/25 03:59:01;;;;;;;0.95;0.60;;;;;;;22.33;60.40;99696.13;5306519;27;20130;-96
2023/08/25 04:01:27;;;;;;;1.00;1.00;;;;;;;22.35;60.39;99675.63;5268735;27;20117;-95
2023/08/25 04:03:52;;;;;;;0.40;0.22;;;;;;;22.81;60.41;99660.34;5284811;27;20052;-95
2023/08/25 04:06:30;;;;;;;0.82;0.82;;;;;;;23.04;60.42;99669.06;5284219;27;20064;-96
2023/08/25 04:09:06;;;;;;;1.80;0.93;;;;;;;23.27;60.44;99657.31;5270918;27;20105;-96
2023/08/25 04:11:32;;;;;;;1.10;1.02;;;;;;;22.89;60.42;99650.78;5290866;27;20032;-95
2023/08/25 04:13:57;;;;;;;0.47;0.47;;;;;;;23.02;60.42;99641.81;5284737;27;20344;-96
2023/08/25 04:16:23;;;;;;;0.40;0.40;;;;;;;22.94;60.41;99639.78;5284628;26;20068;-96
2023/08/25 04:18:48;;;;;;;0.00;0.00;;;;;;;23.03;60.42;99632.88;5284548;27;20084;-96
2023/08/25 04:21:14;;;;;;;0.90;0.90;;;;;;;23.02;60.42;99628.53;5280781;26;20056;-96
2023/08/25 04:24:13;;;;;;;;;;;;;;;;;;;;;
2023/08/25 04:26:39;;;;;;;0.10;0.10;;;;;;;23.25;60.43;99600.84;5274948;27;35285;-95
2023/08/25 04:29:06;;;;;;;1.90;0.65;;;;;;;23.35;60.43;99593.75;5262969;27;20061;-96
2023/08/25 04:31:31;;;;;;;0.20;0.20;;;;;;;23.35;60.45;99583.13;5265703;26;20040;-94
2023/08/25 04:33:57;;;;;;;1.40;0.57;;;;;;;23.40;60.44;99580.06;5262159;27;20112;-93
2023/08/25 04:36:22;;;;;;;0.13;0.13;;;;;;;23.42;60.44;99583.41;5261525;27;20057;-94
2023/08/25 04:38:48;;;;;;;0.57;0.57;;;;;;;23.56;60.45;99577.75;5260493;27;20061;-94
2023/08/25 04:41:14;;;;;;;1.27;0.73;;;;;;;23.57;60.45;99582.09;5261151;27;20075;-94
2023/08/25 04:43:39;;;;;;;0.20;0.20;;;;;;;23.87;60.47;99587.34;5260682;27;20057;-93
2023/08/25 04:46:05;;;;;;;0.68;0.68;;;;;;;23.74;60.45;99591.25;5260835;27;20732;-94
2023/08/25 04:48:32;;;;;;;0.68;0.65;;;;;;;23.70;60.46;99581.87;5260587;27;20057;-94
2023/08/25 04:50:58;;;;;;;0.05;0.05;;;;;;;23.61;60.46;99580.00;5261289;27;20056;-95
2023/08/25 04:53:24;;;;;;;1.17;0.85;;;;;;;23.57;60.45;99560.84;5260982;27;20110;-92
2023/08/25 04:55:50;;;;;;;1.15;1.05;;;;;;;23.70;60.46;99558.78;5262306;27;20088;-94
2023/08/25 04:58:16;;;;;;;0.30;0.30;;;;;;;23.65;60.45;99545.03;5262150;27;20057;-93
2023/08/25 05:00:42;;;;;;;0.20;0.20;;;;;;;23.66;60.45;99537.91;5245267;27;20067;-93
2023/08/25 05:03:07;;;;;;;1.02;0.93;;;;;;;23.77;60.46;99527.19;5280365;27;20060;-95
2023/08/25 05:05:33;;;;;;;0.25;0.22;;;;;;;23.80;60.46;99509.12;5261993;27;20182;-94
2023/08/25 05:07:58;;;;;;;0.25;0.25;;;;;;;24.00;60.48;99493.19;5264749;26;20094;-94
2023/08/25 05:10:24;;;;;;;0.10;0.10;;;;;;;23.99;60.48;99491.50;5262205;27;20060;-95
2023/08/25 05:12:49;;;;;;;0.37;0.37;;;;;;;24.14;60.49;99509.56;5262471;26;20056;-94
2023/08/25 05:15:15;;;;;;;0.15;0.15;;;;;;;24.44;60.49;99537.00;5261861;27;20072;-94
2023/08/25 05:17:40;;;;;;;1.08;0.73;;;;;;;24.26;60.49;99552.78;5263139;26;20397;-95
2023/08/25 05:20:08;;;;;;;0.00;0.00;;;;;;;24.02;60.47;99568.34;5262673;27;20352;-94
2023/08/25 05:22:34;;;;;;;0.98;0.47;;;;;;;23.91;60.47;99552.53;5262489;27;20068;-93
2023/08/25 05:24:59;;;;;;;0.90;0.90;;;;;;;24.06;60.48;99557.28;5262023;27;20081;-93
2023/08/25 05:27:25;;;;;;;3.78;1.10;;;;;;;23.82;60.47;99556.84;5261884;27;20061;-94
2023/08/25 05:29:50;;;;;;;0.62;0.62;;;;;;;23.53;60.45;99530.19;5264702;26;20309;-94
2023/08/25 05:32:15;;;;;;;0.93;0.93;;;;;;;23.36;60.45;99517.56;5261886;27;20088;-93
2023/08/25 05:34:41;;;;;;;0.50;0.50;;;;;;;23.42;60.45;99509.91;5262210;27;20065;-93
2023/08/25 05:37:06;;;;;;;0.00;0.00;;;;;;;23.52;60.45;99486.00;5261545;27;20065;-94
2023/08/25 05:39:32;;;;;;;0.10;0.10;;;;;;;23.60;60.46;99495.97;5260963;27;20095;-93
2023/08/25 05:41:57;;;;;;;0.47;0.47;;;;;;;23.70;60.46;99491.50;5261841;27;20096;-93
2023/08/25 05:44:23;;;;;;;0.43;0.40;;;;;;;23.85;60.47;99495.41;5262187;27;20069;-93
2023/08/25 05:46:48;;;;;;;3.83;0.93;;;;;;;23.78;60.46;99508.44;5261350;27;20077;-91
2023/08/25 05:49:14;;;;;;;0.77;0.77;;;;;;;23.84;60.46;99512.34;5260848;27;20076;-92
2023/08/25 05:51:40;;;;;;;0.80;0.80;;;;;;;23.79;60.46;99525.22;5263708;26;20061;-95
2023/08/25 05:54:05;;;;;;;0.10;0.10;;;;;;;23.76;60.47;99533.47;5262644;27;20453;-95
2023/08/25 05:56:31;;;;;;;1.08;1.02;;;;;;;23.92;60.47;99540.91;5261806;27;20062;-93
2023/08/25 05:58:59;;;;;;;0.30;0.30;;;;;;;24.12;60.47;99542.56;5261092;27;20093;-94
2023/08/25 06:01:25;;;;;;;0.62;0.62;;;;;;;24.13;60.48;99539.81;5261842;27;20052;-93
2023/08/25 06:03:50;;;;;;;0.80;0.80;;;;;;;23.99;60.47;99547.34;5261376;27;20075;-93
2023/08/25 06:06:16;;;;;;;0.50;0.50;;;;;;;24.00;60.47;99559.66;5261696;27;20117;-93
2023/08/25 06:08:42;;;;;;;0.70;0.68;;;;;;;23.89;60.47;99552.63;5280038;27;20076;-95
2023/08/25 06:11:07;;;;;;;2.58;1.15;;;;;;;24.23;60.48;99544.25;5260987;27;20053;-94
2023/08/25 06:13:33;;;;;;;0.00;0.00;;;;;;;24.24;60.49;99553.91;5260586;27;20093;-93
2023/08/25 06:15:58;;;;;;;1.00;0.90;;;;;;;24.32;60.49;99559.41;5280305;27;20071;-94
2023/08/25 06:18:24;;;;;;;0.50;0.50;;;;;;;24.32;60.49;99552.25;5261582;27;20065;-94
2023/08/25 06:20:50;;;;;;;0.40;0.40;;;;;;;24.32;60.49;99546.94;5262079;27;20067;-95
2023/08/25 06:23:16;;;;;;;2.08;1.10;;;;;;;24.39;60.50;99539.25;5262990;27;20065;-94
2023/08/25 06:25:43;;;;;;;0.82;0.82;;;;;;;24.40;60.49;99541.75;5263763;26;20088;-95
2023/08/25 06:28:09;;;;;;;0.80;0.75;;;;;;;24.65;60.50;99545.63;5261248;27;20056;-94
2023/08/25 06:30:35;;;;;;;0.93;0.70;;;;;;;24.91;60.52;99539.69;5261209;27;20052;-95
2023/08/25 06:33:01;;;;;;;0.55;0.55;;;;;;;24.99;60.51;99548.63;5260829;27;20073;-95
2023/08/25 06:35:27;;;;;;;0.20;0.20;;;;;;;25.26;60.54;99539.00;5261349;27;20118;-96
2023/08/25 06:37:52;;;;;;;0.77;0.60;;;;;;;25.36;60.54;99524.66;5260656;27;20336;-95
2023/08/25 06:40:18;;;;;;;0.73;0.73;;;;;;;25.62;60.57;99534.59;5260484;27;20060;-95
2023/08/25 06:42:43;;;;;;;0.00;0.00;;;;;;;25.89;60.57;99531.06;5261110;27;20113;-95
2023/08/25 06:45:09;;;;;;;0.93;0.80;;;;;;;25.86;60.56;99534.88;5261442;27;20629;-96
2023/08/25 06:47:34;;;;;;;1.27;1.17;;;;;;;25.94;60.58;99531.44;5281728;27;20057;-95
2023/08/25 06:50:00;;;;;;;4.55;0.98;;;;;;;26.37;60.59;99536.00;5260770;27;20044;-95
2023/08/25 06:52:26;;;;;;;0.95;0.50;;;;;;;26.49;60.60;99533.91;5260812;27;20064;-95
2023/08/25 06:54:51;;;;;;;0.85;0.82;;;;;;;26.62;60.60;99535.19;5261054;27;20084;-96
2023/08/25 06:57:17;;;;;;;0.37;0.37;;;;;;;26.90;60.62;99529.69;5261418;27;20060;-96
2023/08/25 06:59:42;;;;;;;0.80;0.75;;;;;;;27.06;60.63;99524.47;5260712;26;20134;-96
2023/08/25 07:02:08;;;;;;;0.52;0.52;;;;;;;27.04;60.63;99528.28;5279436;27;20119;-95
2023/08/25 07:04:34;;;;;;;0.77;0.77;;;;;;;27.31;60.64;99528.06;5261686;27;20577;-96
2023/08/25 07:07:00;;;;;;;2.00;1.73;;;;;;;27.52;60.64;99535.66;5261506;27;20060;-96
2023/08/25 07:09:27;;;;;;;1.20;0.88;;;;;;;27.66;60.65;99537.72;5262437;27;20527;-96
2023/08/25 07:11:52;;;;;;;0.70;0.70;;;;;;;27.77;60.66;99534.75;5262931;27;20126;-96
2023/08/25 07:14:21;;;;;;;0.80;0.80;;;;;;;27.69;60.66;99537.41;5265254;27;20120;-96
2023/08/25 07:16:57;;;;;;;1.75;0.90;;;;;;;27.77;60.66;99542.78;5289956;26;20026;-96
2023/08/25 07:19:23;;;;;;;2.05;1.12;;;;;;;28.09;60.68;99541.97;5278404;26;20029;-96
2023/08/25 07:21:51;;;;;;;1.05;0.88;;;;;;;28.08;60.68;99539.47;5277442;26;20089;-94
2023/08/25 07:24:17;;;;;;;1.40;1.23;;;;;;;27.90;60.67;99552.97;5263295;26;20705;-95
2023/08/25 07:26:43;;;;;;;0.32;0.32;;;;;;;27.94;60.67;99551.69;5260868;27;20052;-95
2023/08/25 07:29:11;;;;;;;1.15;1.00;;;;;;;28.03;60.68;99553.34;5260476;26;20050;-95
2023/08/25 07:31:36;;;;;;;3.67;1.60;;;;;;;28.07;60.69;99552.00;5263065;27;20066;-95
2023/08/25 07:34:02;;;;;;;0.85;0.85;;;;;;;28.09;60.68;99549.16;5260913;27;20125;-96
2023/08/25 07:36:28;;;;;;;0.55;0.55;;;;;;;28.19;60.68;99549.00;5263190;27;20053;-96
2023/08/25 07:38:56;;;;;;;0.55;0.55;;;;;;;28.27;60.69;99563.25;5263229;26;20045;-95
2023/08/25 07:41:24;;;;;;;0.85;0.85;;;;;;;28.39;60.68;99555.72;5265030;27;20698;-96
2023/08/25 07:44:02;;;;;;;0.30;0.30;;;;;;;28.34;60.69;99560.75;5268699;27;20079;-96
2023/08/25 07:46:48;;;;;;;0.80;0.77;;;;;;;28.58;60.70;99546.50;5272042;26;20036;-96
2023/08/25 07:49:19;;;;;;;0.52;0.52;;;;;;;28.72;60.71;99543.97;5269241;27;20040;-96
2023/08/25 07:52:30;;;;;;;1.35;1.30;;;;;;;28.66;60.71;99530.44;5270478;27;20030;-96
2023/08/25 07:55:46;;;;;;;0.55;0.55;;;;;;;28.71;60.72;99526.25;5298404;27;20083;-96
2023/08/25 07:58:47;;;;;;;;;;;;;;;;;;;;;
2023/08/25 08:01:41;;;;;;;0.60;0.50;;;;;;;29.22;60.73;99520.56;5222087;27;36830;-96
2023/08/25 08:04:29;;;;;;;2.15;0.93;;;;;;;29.35;60.75;99515.50;5273703;27;20061;-96
2023/08/25 08:07:23;;;;;;;0.52;0.52;;;;;;;29.40;60.75;99509.59;5296197;27;20040;-96
2023/08/25 08:13:39;;;;;;;2.45;1.30;;;;;;;29.45;60.75;99510.78;5250713;27;20061;-96
2023/08/25 08:16:19;;;;;;;0.73;0.73;;;;;;;29.51;60.76;99511.91;5296243;27;20029;-96
2023/08/25 08:19:15;;;;;;;;;;;;;;;;;;;;;
2023/08/25 08:22:00;;;;;;;;;;;;;;;;;;;;;
2023/08/25 08:24:36;;;;;;;0.88;0.88;;;;;;;29.49;60.75;99520.13;5293081;27;35359;-96
2023/08/25 08:27:04;;;;;;;0.68;0.68;;;;;;;29.56;60.75;99509.53;5249420;27;20500;-96
2023/08/25 08:29:29;;;;;;;0.52;0.52;;;;;;;29.42;60.75;99510.25;5265944;26;20061;-96
2023/08/25 08:31:55;;;;;;;0.60;0.60;;;;;;;29.59;60.76;99512.72;5263031;27;20056;-96
2023/08/25 08:34:21;;;;;;;0.10;0.10;;;;;;;29.79;60.76;99509.56;5262485;26;20059;-96
2023/08/25 08:36:47;;;;;;;0.20;0.20;;;;;;;29.81;60.76;99512.87;5261643;27;20065;-96
2023/08/25 08:39:13;;;;;;;0.60;0.60;;;;;;;29.87;60.77;99509.50;5261549;27;20069;-95
2023/08/25 08:41:38;;;;;;;0.20;0.20;;;;;;;30.11;60.78;99503.16;5261726;27;20057;-96
2023/08/25 08:44:04;;;;;;;1.20;1.00;;;;;;;30.25;60.79;99500.50;5268132;26;20045;-96
2023/08/25 08:46:29;;;;;;;0.30;0.20;;;;;;;30.36;60.79;99501.91;5269279;27;20186;-96
2023/08/25 08:48:55;;;;;;;2.40;0.85;;;;;;;30.31;60.80;99504.31;5261976;27;20491;-95
2023/08/25 08:51:20;;;;;;;0.40;0.40;;;;;;;30.29;60.79;99513.59;5261531;27;20118;-94
2023/08/25 08:53:47;;;;;;;0.05;0.05;;;;;;;30.54;60.81;99515.84;5262074;27;20060;-96
2023/08/25 08:56:13;;;;;;;0.13;0.13;;;;;;;30.68;60.81;99513.37;5261511;27;20068;-95
2023/08/25 08:58:39;;;;;;;1.37;1.10;;;;;;;30.89;60.82;99512.66;5261623;27;20319;-96
2023/08/25 09:01:05;;;;;;;5.50;1.15;;;;;;;31.02;60.83;99512.84;5260897;27;20053;-95
2023/08/25 09:03:33;;;;;;;0.10;0.10;;;;;;;31.23;60.84;99514.78;5261808;27;20071;-94
2023/08/25 09:05:59;;;;;;;0.47;0.47;;;;;;;31.34;60.85;99512.47;5243855;27;20690;-96
2023/08/25 09:08:25;;;;;;;0.32;0.32;;;;;;;31.31;60.84;99522.75;5262137;27;20077;-95
2023/08/25 09:10:50;;;;;;;1.50;1.35;;;;;;;31.40;60.84;99509.00;5261725;27;20101;-95
2023/08/25 09:13:16;;;;;;;0.98;0.85;;;;;;;31.41;60.84;99509.84;5279949;27;20048;-94
2023/08/25 09:15:43;;;;;;;0.40;0.10;;;;;;;31.18;60.84;99511.81;5261716;27;20345;-94
2023/08/25 09:18:08;;;;;;;0.32;0.32;;;;;;;31.42;60.86;99509.66;5261404;27;20137;-94
2023/08/25 09:20:38;;;;;;;0.40;0.40;;;;;;;31.33;60.85;99504.59;5263502;27;20076;-95
2023/08/25 09:23:04;;;;;;;0.80;0.80;;;;;;;31.40;60.86;99514.38;5261632;27;20065;-94
2023/08/25 09:25:29;;;;;;;0.45;0.45;;;;;;;31.40;60.86;99503.63;5261056;27;20496;-93
2023/08/25 09:27:58;;;;;;;1.55;1.15;;;;;;;31.33;60.85;99497.34;5261195;27;20077;-95
2023/08/25 09:30:38;;;;;;;1.35;1.25;;;;;;;31.56;60.87;99494.50;5261855;27;20445;-94
2023/08/25 09:33:04;;;;;;;;;;;;;;;31.91;60.88;99498.19;5243595;27;20126;-94
2023/08/25 09:35:31;;;;;;;0.62;0.62;;;;;;;32.11;60.88;99487.59;5261142;27;20004;-96
2023/08/25 09:37:56;;;;;;;1.65;0.82;;;;;;;32.15;60.90;99491.56;5260515;27;20060;-94
2023/08/25 09:40:22;;;;;;;0.40;0.40;;;;;;;32.12;60.88;99488.44;5261605;27;20111;-94
2023/08/25 09:42:47;;;;;;;1.00;0.95;;;;;;;32.32;60.90;99489.47;5261433;27;20091;-93
2023/08/25 09:45:12;;;;;;;0.70;0.43;;;;;;;32.49;60.90;99492.72;5260750;27;20360;-95
2023/08/25 09:47:38;;;;;;;0.45;0.45;;;;;;;32.52;60.91;99489.63;5261139;27;20108;-94
2023/08/25 09:50:04;;;;;;;1.35;0.75;;;;;;;32.62;60.91;99490.91;5261337;27;20091;-95
2023/08/25 09:52:34;;;;;;;2.53;0.20;;;;;;;32.62;60.92;99485.53;5261284;27;20855;-95
2023/08/25 09:54:59;;;;;;;0.10;0.10;;;;;;;32.97;60.93;99482.87;5243766;27;20069;-95
2023/08/25 09:57:25;;;;;;;1.55;0.85;;;;;;;33.12;60.94;99480.00;5261384;27;20114;-95
2023/08/25 09:59:50;;;;;;;0.15;0.15;;;;;;;33.24;60.93;99468.47;5261190;27;20068;-96
2023/08/25 10:02:16;;;;;;;0.50;0.25;;;;;;;33.38;60.94;99469.38;5264269;27;20061;-96
2023/08/25 10:04:42;;;;;;;0.00;0.00;;;;;;;33.56;60.95;99472.31;5261620;27;20065;-95
2023/08/25 10:07:07;;;;;;;0.62;0.55;;;;;;;33.67;60.97;99473.59;5261929;27;20057;-96
2023/08/25 10:09:33;;;;;;;0.10;0.10;;;;;;;33.77;60.97;99456.97;5260712;27;20104;-96
2023/08/25 10:11:58;;;;;;;0.15;0.15;;;;;;;34.04;60.98;99461.38;5261053;27;20064;-96
2023/08/25 10:14:24;;;;;;;0.47;0.47;;;;;;;34.01;60.98;99453.72;5261926;27;20116;-96
2023/08/25 10:16:54;;;;;;;0.88;0.88;;;;;;;34.12;60.98;99460.37;5245302;27;20088;-96
2023/08/25 10:19:25;;;;;;;0.68;0.50;;;;;;;34.23;61.00;99459.72;5264854;27;20065;-96
2023/08/25 10:21:51;;;;;;;0.37;0.35;;;;;;;34.53;61.00;99453.91;5263913;27;20076;-96
2023/08/25 10:24:21;;;;;;;0.05;0.05;;;;;;;34.68;61.01;99455.31;5263322;27;20069;-96
2023/08/25 10:26:48;;;;;;;0.10;0.10;;;;;;;34.82;61.02;99464.25;5261532;27;20021;-96
2023/08/25 10:29:15;;;;;;;0.00;0.00;;;;;;;34.84;61.02;99464.03;5243369;27;20053;-94
2023/08/25 10:31:51;;;;;;;0.75;0.75;;;;;;;35.05;61.04;99456.50;5262327;27;20649;-96
2023/08/25 10:34:36;;;;;;;0.30;0.30;;;;;;;34.98;61.03;99457.53;5243345;27;20141;-96
2023/08/25 10:39:50;;;;;;;0.25;0.10;;;;;;;35.18;61.04;99469.13;5302233;27;20117;-96
2023/08/25 10:42:19;;;;;;;0.88;0.75;;;;;;;35.09;61.04;99465.00;5375463;26;20394;-96
2023/08/25 10:44:46;;;;;;;0.17;0.10;;;;;;;35.15;61.04;99466.00;5374959;26;20085;-96
2023/08/25 10:47:29;;;;;;;0.30;0.20;;;;;;;35.19;61.04;99459.94;5376591;26;20057;-96
2023/08/25 10:49:56;;;;;;;1.08;0.60;;;;;;;35.12;61.04;99461.03;5376424;26;20053;-96
2023/08/25 10:52:22;;;;;;;0.32;0.32;;;;;;;35.27;61.05;99456.19;5357936;26;20139;-96
2023/08/25 10:55:26;;;;;;;0.13;0.13;;;;;;;35.47;61.06;99453.38;5357684;26;20081;-96
2023/08/25 10:58:01;;;;;;;0.17;0.17;;;;;;;35.62;61.06;99457.44;5359145;26;20125;-96
2023/08/25 11:00:34;;;;;;;0.65;0.65;;;;;;;35.45;61.06;99453.59;5360869;26;20049;-95
2023/08/25 11:03:01;;;;;;;1.00;0.68;;;;;;;35.55;61.06;99453.13;5355835;26;20059;-95
2023/08/25 11:05:28;;;;;;;5.82;1.48;;;;;;;35.27;61.06;99454.31;5360782;26;20030;-95
2023/08/25 11:07:57;;;;;;;0.30;0.30;;;;;;;35.21;61.05;99451.63;5379094;26;20052;-96
2023/08/25 11:10:23;;;;;;;0.52;0.10;;;;;;;35.03;61.05;99446.94;5376136;26;20053;-96
2023/08/25 11:12:51;;;;;;;0.10;0.10;;;;;;;35.26;61.04;99454.53;5358341;26;20069;-94
2023/08/25 11:15:16;;;;;;;0.10;0.10;;;;;;;35.28;61.06;99452.44;5355582;26;20061;-96
2023/08/25 11:17:43;;;;;;;0.43;0.43;;;;;;;35.37;61.06;99459.28;5359445;26;20053;-96
2023/08/25 11:20:09;;;;;;;0.40;0.40;;;;;;;35.50;61.07;99453.78;5378720;26;20120;-96
2023/08/25 11:22:34;;;;;;;0.28;0.28;;;;;;;35.58;61.07;99448.09;5355766;26;20060;-96
2023/08/25 11:25:00;;;;;;;0.55;0.47;;;;;;;35.34;61.06;99444.31;5337195;26;20431;-96
2023/08/25 11:27:25;;;;;;;0.17;0.17;;;;;;;35.45;61.06;99447.34;5338715;26;20105;-96
2023/08/25 11:29:51;;;;;;;2.95;1.33;;;;;;;35.48;61.06;99446.91;5338439;26;20092;-96
2023/08/25 11:32:16;;;;;;;1.30;1.23;;;;;;;35.37;61.05;99443.03;5355896;26;20126;-96
2023/08/25 11:34:47;;;;;;;0.15;0.15;;;;;;;35.37;61.06;99443.03;5356166;26;20047;-96
2023/08/25 11:37:14;;;;;;;0.25;0.25;;;;;;;35.58;61.07;99440.00;5338414;26;20025;-96
2023/08/25 11:39:43;;;;;;;0.82;0.45;;;;;;;35.69;61.08;99447.41;5340270;26;20018;-96
2023/08/25 11:42:10;;;;;;;0.30;0.28;;;;;;;36.03;61.09;99439.88;5357568;26;20055;-96
2023/08/25 11:44:41;;;;;;;0.30;0.30;;;;;;;35.78;61.08;99439.03;5356120;26;20049;-96
2023/08/25 11:47:08;;;;;;;0.30;0.30;;;;;;;35.74;61.08;99441.34;5356713;26;20435;-96
2023/08/25 11:49:41;;;;;;;1.42;1.33;;;;;;;35.79;61.08;99433.38;5337404;26;20100;-95
2023/08/25 11:52:07;;;;;;;0.22;0.20;;;;;;;35.83;61.08;99429.22;5336508;26;20049;-96
2023/08/25 11:54:55;;;;;;;0.20;0.20;;;;;;;35.87;61.08;99432.31;5337736;26;20387;-96
2023/08/25 11:57:36;;;;;;;8.07;0.98;;;;;;;35.87;61.08;99425.00;5357263;26;20057;-96
2023/08/25 12:00:03;;;;;;;0.55;0.22;;;;;;;35.77;61.08;99427.38;5338651;26;20085;-96
2023/08/25 12:02:28;;;;;;;0.40;0.22;;;;;;;35.84;61.08;99427.34;5380241;26;20120;-96
2023/08/25 12:04:59;;;;;;;0.15;0.15;;;;;;;35.76;61.08;99423.00;5339315;26;20614;-95
2023/08/25 12:07:25;;;;;;;0.47;0.40;;;;;;;35.93;61.09;99426.81;5338123;26;20081;-96
2023/08/25 12:09:54;;;;;;;0.17;0.17;;;;;;;35.94;61.09;99422.25;5339570;26;20061;-96
2023/08/25 12:12:21;;;;;;;0.37;0.35;;;;;;;36.29;61.10;99422.56;5337486;26;20044;-96
2023/08/25 12:14:50;;;;;;;1.08;1.00;;;;;;;36.31;61.11;99419.66;5340227;26;20069;-96
2023/08/25 12:17:27;;;;;;;0.20;0.20;;;;;;;36.28;61.10;99424.44;5376775;26;20052;-96
2023/08/25 12:19:54;;;;;;;0.22;0.20;;;;;;;36.18;61.10;99418.69;5337802;26;20072;-95
2023/08/25 12:22:20;;;;;;;0.05;0.05;;;;;;;36.43;61.11;99420.56;5337017;26;20080;-96
2023/08/25 12:24:48;;;;;;;0.20;0.20;;;;;;;36.66;61.12;99422.59;5338777;26;20062;-96
2023/08/25 12:27:15;;;;;;;0.30;0.30;;;;;;;36.77;61.12;99414.53;5338172;26;20071;-96
2023/08/25 12:29:43;;;;;;;0.22;0.22;;;;;;;36.85;61.13;99422.41;5342482;26;20065;-96
2023/08/25 12:32:09;;;;;;;0.30;0.30;;;;;;;37.02;61.13;99408.22;5361653;26;20041;-96
2023/08/25 12:34:42;;;;;;;0.30;0.30;;;;;;;37.09;61.14;99412.50;5347246;26;20109;-96
2023/08/25 12:37:11;;;;;;;3.28;0.52;;;;;;;37.20;61.16;99405.47;5339527;26;20083;-96
2023/08/25 12:39:37;;;;;;;0.50;0.47;;;;;;;37.30;61.15;99403.03;5338480;26;20056;-96
2023/08/25 12:42:06;;;;;;;1.23;0.68;;;;;;;37.43;61.15;99402.88;5342293;26;20078;-96
2023/08/25 12:44:32;;;;;;;;;;;;;;;37.42;61.15;99397.66;5362414;26;20018;-96
2023/08/25 12:46:58;;;;;;;2.08;1.10;;;;;;;37.66;61.16;99391.22;5395604;26;19976;-96
2023/08/25 12:49:26;;;;;;;0.25;0.25;;;;;;;37.77;61.18;99389.59;5344002;26;20062;-96
2023/08/25 12:52:01;;;;;;;0.77;0.75;;;;;;;37.90;61.18;99385.84;5377240;26;20492;-96
2023/08/25 12:54:26;;;;;;;2.08;0.88;;;;;;;37.84;61.17;99384.88;5357783;26;20065;-96
2023/08/25 12:56:53;;;;;;;0.15;0.15;;;;;;;37.90;61.18;99383.13;5361046;26;20056;-96
2023/08/25 12:59:22;;;;;;;0.28;0.28;;;;;;;37.92;61.18;99378.28;5334026;26;20772;-94
2023/08/25 13:01:47;;;;;;;0.32;0.32;;;;;;;37.70;61.17;99378.00;5342965;26;20659;-94